Time;durP1;ratioP1;P1;durP2;ratioP2;P2;SDS_P1;SDS_P2;PMS_P1;PMS_P2;Temp;Humidity;BMP_temperature;BMP_pressure;BME280_temperature;BME280_humidity;BME280_pressure;Samples;Min_cycle;Max_cycle;Signal;HPM_P1;HPM_P2
2024/02/07 00:03:02;;;;;;;4.28;1.30;;;;;;;;;;4935620;29;20253;-82
2024/02/07 00:05:32;;;;;;;6.38;1.65;;;;;;;;;;5022621;23;20055;-82
2024/02/07 00:08:04;;;;;;;5.53;1.10;;;;;;;;;;4965621;29;20050;-82
2024/02/07 00:10:30;;;;;;;;;;;;;;;;;;4956632;29;20035;-82
2024/02/07 00:13:01;;;;;;;4.03;1.50;;;;;;;;;;4972329;28;19910;-81
2024/02/07 00:15:27;;;;;;;10.80;1.73;;;;;;;;;;4953145;29;20435;-82
2024/02/07 00:17:55;;;;;;;5.10;1.95;;;;;;;;;;4947608;29;20032;-83
2024/02/07 00:20:21;;;;;;;3.47;1.33;;;;;;;;;;4931932;29;20475;-80
2024/02/07 00:22:49;;;;;;;5.25;1.30;;;;;;;;;;4950603;29;20062;-82
2024/02/07 00:25:15;;;;;;;5.70;1.60;;;;;;;;;;4935338;29;20042;-81
2024/02/07 00:27:44;;;;;;;4.15;1.17;;;;;;;;;;4920308;29;20031;-82
2024/02/07 00:30:10;;;;;;;6.90;1.70;;;;;;;;;;4937057;29;20036;-81
2024/02/07 00:32:39;;;;;;;3.97;1.50;;;;;;;;;;4938567;29;20042;-81
2024/02/07 00:35:05;;;;;;;4.10;1.50;;;;;;;;;;4934797;29;20426;-81
2024/02/07 00:37:37;;;;;;;6.07;2.20;;;;;;;;;;4949790;29;20099;-83
2024/02/07 00:40:09;;;;;;;4.38;1.40;;;;;;;;;;4935263;29;20039;-81
2024/02/07 00:42:38;;;;;;;6.32;2.00;;;;;;;;;;4949684;29;20491;-81
2024/02/07 00:45:07;;;;;;;6.32;2.00;;;;;;;;;;4933941;29;20049;-81
2024/02/07 00:47:34;;;;;;;6.32;1.77;;;;;;;;;;4901831;29;20416;-82
2024/02/07 00:50:02;;;;;;;8.10;2.10;;;;;;;;;;4930319;29;20128;-81
2024/02/07 00:52:28;;;;;;;7.82;2.42;;;;;;;;;;4929542;29;20046;-82
2024/02/07 00:54:54;;;;;;;6.28;2.03;;;;;;;;;;4935346;29;20095;-81
2024/02/07 00:57:21;;;;;;;5.05;1.90;;;;;;;;;;4940167;29;20047;-80
2024/02/07 00:59:49;;;;;;;7.57;1.80;;;;;;;;;;4924592;29;20018;-82
2024/02/07 01:02:16;;;;;;;5.03;1.75;;;;;;;;;;4925025;29;20035;-80
2024/02/07 01:04:43;;;;;;;8.18;2.20;;;;;;;;;;4923285;29;20084;-81
2024/02/07 01:07:10;;;;;;;6.28;2.40;;;;;;;;;;4939816;29;20039;-81
2024/02/07 01:09:36;;;;;;;9.77;1.88;;;;;;;;;;4931975;29;20492;-81
2024/02/07 01:12:07;;;;;;;4.95;1.85;;;;;;;;;;4944991;29;20051;-81
2024/02/07 01:14:35;;;;;;;5.50;1.92;;;;;;;;;;4929384;29;20233;-81
2024/02/07 01:17:03;;;;;;;;;;;;;;;;;;4929726;29;20103;-81
2024/02/07 01:19:28;;;;;;;4.65;1.83;;;;;;;;;;4930436;29;19935;-81
2024/02/07 01:21:55;;;;;;;8.27;2.58;;;;;;;;;;4915312;29;20395;-80
2024/02/07 01:24:34;;;;;;;6.57;1.52;;;;;;;;;;4918091;29;20049;-82
2024/02/07 01:27:07;;;;;;;9.25;2.00;;;;;;;;;;4916111;29;20040;-80
2024/02/07 01:29:35;;;;;;;6.82;1.95;;;;;;;;;;4929864;29;20032;-81
2024/02/07 01:32:00;;;;;;;9.07;1.60;;;;;;;;;;4914758;29;20031;-81
2024/02/07 01:34:27;;;;;;;5.63;2.03;;;;;;;;;;4930537;29;20032;-82
2024/02/07 01:36:57;;;;;;;8.55;2.10;;;;;;;;;;4933811;29;20035;-81
2024/02/07 01:39:26;;;;;;;4.55;1.58;;;;;;;;;;4956503;29;20016;-81
2024/02/07 01:41:59;;;;;;;5.28;1.98;;;;;;;;;;4931638;29;20035;-81
2024/02/07 01:44:26;;;;;;;7.93;1.95;;;;;;;;;;4933950;29;20055;-81
2024/02/07 01:47:10;;;;;;;10.00;2.05;;;;;;;;;;4941599;29;20111;-80
2024/02/07 01:49:51;;;;;;;8.60;1.95;;;;;;;;;;4940720;29;20024;-82
2024/02/07 01:52:23;;;;;;;7.65;1.67;;;;;;;;;;4912227;29;20052;-82
2024/02/07 01:54:55;;;;;;;6.18;1.60;;;;;;;;;;4944085;29;20032;-81
2024/02/07 01:57:21;;;;;;;7.40;1.90;;;;;;;;;;4943621;29;20016;-81
2024/02/07 01:59:53;;;;;;;7.30;1.83;;;;;;;;;;4926952;28;20032;-79
2024/02/07 02:02:25;;;;;;;7.45;1.75;;;;;;;;;;4943787;29;20036;-80
2024/02/07 02:04:51;;;;;;;6.15;1.67;;;;;;;;;;4930379;29;20043;-80
2024/02/07 02:07:19;;;;;;;5.25;1.40;;;;;;;;;;4947540;29;20046;-80
2024/02/07 02:09:45;;;;;;;6.28;1.60;;;;;;;;;;4947445;29;20062;-82
2024/02/07 02:12:11;;;;;;;6.70;1.60;;;;;;;;;;4962856;28;20040;-80
2024/02/07 02:14:37;;;;;;;6.40;1.67;;;;;;;;;;4947134;28;20035;-83
2024/02/07 02:17:03;;;;;;;4.05;1.58;;;;;;;;;;4946223;29;20051;-82
2024/02/07 02:19:28;;;;;;;6.63;2.38;;;;;;;;;;4936316;29;20448;-81
2024/02/07 02:22:11;;;;;;;5.82;1.85;;;;;;;;;;4938036;29;20043;-82
2024/02/07 02:24:39;;;;;;;3.58;1.48;;;;;;;;;;4943441;29;20046;-81
2024/02/07 02:27:31;;;;;;;8.43;1.52;;;;;;;;;;4961516;29;20040;-82
2024/02/07 02:29:59;;;;;;;9.82;1.50;;;;;;;;;;4952636;29;20127;-81
2024/02/07 02:32:27;;;;;;;6.20;1.48;;;;;;;;;;4949159;28;20031;-81
2024/02/07 02:34:53;;;;;;;8.95;2.08;;;;;;;;;;4964991;28;20054;-80
2024/02/07 02:37:29;;;;;;;5.28;1.50;;;;;;;;;;4967514;28;20019;-81
2024/02/07 02:39:55;;;;;;;8.57;1.63;;;;;;;;;;4949671;28;20035;-83
2024/02/07 02:42:29;;;;;;;7.47;1.42;;;;;;;;;;4981206;29;20046;-82
2024/02/07 02:45:01;;;;;;;5.15;1.65;;;;;;;;;;4930671;29;20028;-83
2024/02/07 02:47:54;;;;;;;8.57;2.13;;;;;;;;;;4975081;28;20054;-81
2024/02/07 02:50:25;;;;;;;7.65;1.67;;;;;;;;;;4944977;29;20074;-81
2024/02/07 02:52:54;;;;;;;3.40;1.25;;;;;;;;;;4929697;29;20039;-82
2024/02/07 02:55:20;;;;;;;7.45;1.73;;;;;;;;;;4961088;28;20067;-82
2024/02/07 02:57:48;;;;;;;3.50;1.48;;;;;;;;;;4925140;29;20032;-82
2024/02/07 03:00:20;;;;;;;10.05;1.90;;;;;;;;;;4923102;29;20040;-82
2024/02/07 03:02:46;;;;;;;7.15;1.52;;;;;;;;;;4942067;29;20043;-82
2024/02/07 03:08:15;;;;;;;7.25;1.77;;;;;;;;;;4944929;29;20046;-82
2024/02/07 03:10:44;;;;;;;5.70;1.58;;;;;;;;;;4959173;28;20047;-81
2024/02/07 03:13:12;;;;;;;4.32;1.48;;;;;;;;;;4955774;29;20016;-81
2024/02/07 03:15:39;;;;;;;6.18;1.88;;;;;;;;;;4937924;29;20032;-81
2024/02/07 03:18:07;;;;;;;4.82;1.50;;;;;;;;;;4933607;29;20039;-82
2024/02/07 03:20:38;;;;;;;9.73;1.83;;;;;;;;;;4916817;29;20039;-82
2024/02/07 03:23:04;;;;;;;4.65;1.50;;;;;;;;;;4937727;29;20027;-82
2024/02/07 03:25:33;;;;;;;5.97;1.80;;;;;;;;;;4960179;29;20032;-82
2024/02/07 03:28:04;;;;;;;3.40;1.48;;;;;;;;;;4961597;28;20032;-81
2024/02/07 03:30:46;;;;;;;8.00;1.70;;;;;;;;;;4944297;29;20048;-79
2024/02/07 03:33:12;;;;;;;5.15;1.63;;;;;;;;;;4944047;29;20152;-82
2024/02/07 03:35:58;;;;;;;9.48;1.88;;;;;;;;;;4938353;29;20035;-82
2024/02/07 03:38:28;;;;;;;5.55;1.60;;;;;;;;;;4954641;29;20052;-81
2024/02/07 03:40:58;;;;;;;6.53;1.95;;;;;;;;;;4913751;29;20103;-82
2024/02/07 03:43:27;;;;;;;5.85;1.50;;;;;;;;;;4897193;29;20051;-82
2024/02/07 03:45:52;;;;;;;4.13;1.42;;;;;;;;;;4921946;29;20039;-81
2024/02/07 03:48:19;;;;;;;6.80;1.85;;;;;;;;;;4900546;29;20518;-82
2024/02/07 03:50:48;;;;;;;5.15;1.73;;;;;;;;;;4948448;29;20035;-81
2024/02/07 03:53:19;;;;;;;8.20;1.80;;;;;;;;;;4948085;29;20040;-82
2024/02/07 03:55:47;;;;;;;6.82;1.67;;;;;;;;;;4931351;29;20034;-82
2024/02/07 03:58:13;;;;;;;;;;;;;;;;;;4930285;29;20043;-81
2024/02/07 04:00:41;;;;;;;3.85;1.30;;;;;;;;;;4947104;29;19934;-82
2024/02/07 04:03:07;;;;;;;4.00;1.67;;;;;;;;;;4931758;29;20035;-82
2024/02/07 04:05:38;;;;;;;5.23;1.60;;;;;;;;;;4933899;29;20046;-81
2024/02/07 04:08:07;;;;;;;5.57;1.40;;;;;;;;;;4939870;29;20316;-82
2024/02/07 04:10:41;;;;;;;5.38;1.98;;;;;;;;;;4918491;29;20095;-81
2024/02/07 05:16:28;;;;;;;3.80;1.42;;;;;;;;;;4912673;29;20040;-81
2024/02/07 05:18:55;;;;;;;3.78;1.30;;;;;;;;;;4914377;29;20037;-81
2024/02/07 05:21:23;;;;;;;4.72;1.45;;;;;;;;;;4911917;29;20050;-82
2024/02/07 05:23:49;;;;;;;3.92;1.20;;;;;;;;;;4929278;29;20107;-82
2024/02/07 05:26:21;;;;;;;5.88;1.63;;;;;;;;;;4913308;29;20079;-82
2024/02/07 05:28:48;;;;;;;2.40;1.10;;;;;;;;;;4916322;29;20036;-82
2024/02/07 05:31:25;;;;;;;3.88;1.00;;;;;;;;;;4917800;29;20032;-82
2024/02/07 05:33:52;;;;;;;3.63;1.13;;;;;;;;;;4914376;29;20047;-83
2024/02/07 05:36:18;;;;;;;3.38;1.10;;;;;;;;;;4915724;29;20044;-82
2024/02/07 05:38:47;;;;;;;1.67;0.80;;;;;;;;;;4932732;29;20039;-82
2024/02/07 05:41:14;;;;;;;3.40;0.90;;;;;;;;;;4940068;29;20047;-82
2024/02/07 05:43:44;;;;;;;;;;;;;;;;;;4926461;29;20039;-81
2024/02/07 05:46:12;;;;;;;2.95;0.90;;;;;;;;;;4930878;29;19934;-82
2024/02/07 05:48:44;;;;;;;1.65;0.70;;;;;;;;;;4962129;29;20035;-82
2024/02/07 05:51:35;;;;;;;1.88;0.70;;;;;;;;;;4947204;28;20055;-82
2024/02/07 05:54:01;;;;;;;1.85;0.73;;;;;;;;;;4946462;29;20042;-82
2024/02/07 05:56:31;;;;;;;0.80;0.40;;;;;;;;;;4930110;29;20107;-82
2024/02/07 05:59:01;;;;;;;3.92;1.23;;;;;;;;;;4914456;29;20032;-83
2024/02/07 06:01:28;;;;;;;2.38;0.65;;;;;;;;;;4921991;29;20040;-80
2024/02/07 06:03:56;;;;;;;2.50;0.65;;;;;;;;;;4939205;29;20036;-82
2024/02/07 06:06:24;;;;;;;1.55;0.60;;;;;;;;;;4941209;29;20035;-82
2024/02/07 06:08:52;;;;;;;1.85;0.60;;;;;;;;;;4921790;29;20064;-82
2024/02/07 06:11:23;;;;;;;1.83;0.63;;;;;;;;;;4923362;29;20048;-82
2024/02/07 06:13:50;;;;;;;0.75;0.45;;;;;;;;;;4909044;29;20103;-82
2024/02/07 06:16:44;;;;;;;3.55;1.02;;;;;;;;;;4947581;29;20044;-81
2024/02/07 06:19:13;;;;;;;3.63;1.40;;;;;;;;;;4945887;29;20027;-82
2024/02/07 06:21:42;;;;;;;2.50;0.90;;;;;;;;;;4930191;29;20035;-81
2024/02/07 06:24:08;;;;;;;1.92;0.68;;;;;;;;;;4945552;29;20015;-83
2024/02/07 06:26:36;;;;;;;2.03;0.70;;;;;;;;;;4931515;29;20033;-81
2024/02/07 06:29:02;;;;;;;2.50;0.73;;;;;;;;;;4932124;29;20052;-81
2024/02/07 06:31:29;;;;;;;2.60;1.00;;;;;;;;;;4947862;29;20099;-81
2024/02/07 06:33:55;;;;;;;1.60;0.45;;;;;;;;;;4932460;29;20020;-82
2024/02/07 06:36:22;;;;;;;1.95;0.70;;;;;;;;;;4930361;29;20027;-82
2024/02/07 06:38:55;;;;;;;1.25;0.55;;;;;;;;;;4962246;29;20031;-82
2024/02/07 06:41:23;;;;;;;1.08;0.47;;;;;;;;;;4930171;29;20059;-83
2024/02/07 06:43:50;;;;;;;1.40;0.50;;;;;;;;;;4930743;29;20055;-81
2024/02/07 06:46:16;;;;;;;5.38;1.35;;;;;;;;;;4945420;29;20043;-81
2024/02/07 06:48:43;;;;;;;6.70;2.15;;;;;;;;;;4930371;29;20023;-81
2024/02/07 06:51:15;;;;;;;2.58;0.68;;;;;;;;;;4926736;29;20071;-83
2024/02/07 06:53:44;;;;;;;2.67;0.65;;;;;;;;;;4925988;29;20036;-81
2024/02/07 06:56:10;;;;;;;1.50;0.52;;;;;;;;;;4939816;29;20118;-81
2024/02/07 06:58:38;;;;;;;2.42;0.85;;;;;;;;;;4940741;29;20020;-83
2024/02/07 07:01:08;;;;;;;1.77;0.77;;;;;;;;;;4944395;29;20036;-84
2024/02/07 07:03:35;;;;;;;3.53;1.02;;;;;;;;;;4943935;28;20039;-82
2024/02/07 07:06:01;;;;;;;2.83;1.30;;;;;;;;;;4943342;29;20040;-82
2024/02/07 07:08:28;;;;;;;5.72;1.23;;;;;;;;;;4958606;29;20055;-82
2024/02/07 07:10:54;;;;;;;3.78;1.45;;;;;;;;;;4928967;29;20075;-81
2024/02/07 07:13:20;;;;;;;2.75;1.00;;;;;;;;;;4943469;29;20040;-82
2024/02/07 07:15:46;;;;;;;3.58;1.40;;;;;;;;;;4927535;29;20099;-82
2024/02/07 07:18:12;;;;;;;3.63;1.17;;;;;;;;;;4943468;29;20016;-81
2024/02/07 07:20:43;;;;;;;2.08;0.73;;;;;;;;;;4959887;29;20023;-82
2024/02/07 07:23:14;;;;;;;1.77;0.77;;;;;;;;;;4929249;29;20058;-82
2024/02/07 07:25:44;;;;;;;6.32;0.88;;;;;;;;;;4943701;29;20031;-82
2024/02/07 07:28:12;;;;;;;2.83;0.80;;;;;;;;;;4927999;29;20032;-81
2024/02/07 07:30:39;;;;;;;5.40;1.20;;;;;;;;;;4943504;29;20050;-82
2024/02/07 07:33:09;;;;;;;4.35;0.88;;;;;;;;;;4942972;29;20039;-81
2024/02/07 07:35:35;;;;;;;4.00;1.15;;;;;;;;;;4939895;29;20054;-82
2024/02/07 07:38:03;;;;;;;2.80;0.70;;;;;;;;;;4924062;29;20047;-81
2024/02/07 07:40:30;;;;;;;4.35;1.17;;;;;;;;;;4925453;29;20012;-82
2024/02/07 07:42:59;;;;;;;4.35;1.20;;;;;;;;;;4952595;29;20040;-81
2024/02/07 07:45:27;;;;;;;6.55;1.20;;;;;;;;;;4919977;29;20036;-81
2024/02/07 07:47:53;;;;;;;4.03;1.00;;;;;;;;;;4915754;29;20066;-81
2024/02/07 07:50:20;;;;;;;7.85;2.30;;;;;;;;;;4926294;29;20028;-82
2024/02/07 07:52:48;;;;;;;8.07;1.10;;;;;;;;;;4941333;29;20067;-82
2024/02/07 07:55:15;;;;;;;2.70;0.90;;;;;;;;;;4927272;29;20051;-82
2024/02/07 07:57:41;;;;;;;3.63;0.93;;;;;;;;;;4942671;29;20079;-80
2024/02/07 08:00:07;;;;;;;2.92;1.65;;;;;;;;;;4940287;29;20031;-81
2024/02/07 08:02:39;;;;;;;3.03;0.60;;;;;;;;;;4956133;29;20479;-79
2024/02/07 08:05:06;;;;;;;4.05;1.10;;;;;;;;;;4955328;29;20050;-81
2024/02/07 08:07:31;;;;;;;3.15;0.85;;;;;;;;;;4940357;29;20035;-83
2024/02/07 08:09:59;;;;;;;7.10;1.05;;;;;;;;;;4936351;29;20042;-82
2024/02/07 08:12:25;;;;;;;2.85;0.80;;;;;;;;;;4930094;29;20530;-82
2024/02/07 08:14:51;;;;;;;3.45;1.10;;;;;;;;;;4943621;29;20048;-81
2024/02/07 08:17:18;;;;;;;2.90;0.95;;;;;;;;;;4931972;29;20027;-81
2024/02/07 08:19:47;;;;;;;3.78;0.90;;;;;;;;;;4932981;29;20032;-81
2024/02/07 08:22:13;;;;;;;;;;;;;;;;;;4949852;29;20035;-81
2024/02/07 08:24:39;;;;;;;5.45;0.80;;;;;;;;;;4948018;29;19910;-81
2024/02/07 08:27:11;;;;;;;4.35;1.08;;;;;;;;;;4941351;29;20035;-82
2024/02/07 08:29:38;;;;;;;2.33;0.80;;;;;;;;;;4953698;29;20031;-82
2024/02/07 08:32:04;;;;;;;2.75;0.70;;;;;;;;;;4954612;29;20095;-82
2024/02/07 08:34:30;;;;;;;4.28;0.70;;;;;;;;;;4932787;29;20032;-82
2024/02/07 08:36:56;;;;;;;4.05;0.80;;;;;;;;;;4942623;29;20056;-82
2024/02/07 08:39:21;;;;;;;7.32;2.03;;;;;;;;;;4940195;29;20095;-81
2024/02/07 08:41:49;;;;;;;3.47;0.80;;;;;;;;;;4936351;29;20092;-81
2024/02/07 08:44:15;;;;;;;3.40;0.60;;;;;;;;;;4939064;29;20039;-82
2024/02/07 08:46:43;;;;;;;4.07;0.70;;;;;;;;;;4938105;29;20044;-81
2024/02/07 08:49:10;;;;;;;4.82;2.08;;;;;;;;;;4944363;29;20035;-82
2024/02/07 08:51:42;;;;;;;5.60;1.30;;;;;;;;;;4954761;29;20038;-82
2024/02/07 08:54:08;;;;;;;4.90;0.60;;;;;;;;;;4949481;29;20167;-82
2024/02/07 08:56:34;;;;;;;3.67;0.85;;;;;;;;;;4936973;29;20027;-81
2024/02/07 08:59:00;;;;;;;3.75;0.93;;;;;;;;;;4947154;29;20212;-81
2024/02/07 09:01:26;;;;;;;4.65;1.10;;;;;;;;;;4933460;29;20027;-81
2024/02/07 09:03:52;;;;;;;5.03;1.17;;;;;;;;;;4938721;29;20075;-80
2024/02/07 09:06:20;;;;;;;1.98;0.40;;;;;;;;;;4934491;29;20043;-81
2024/02/07 09:08:46;;;;;;;5.57;1.17;;;;;;;;;;4947446;29;20044;-82
2024/02/07 09:11:12;;;;;;;2.95;0.80;;;;;;;;;;4929448;29;20039;-80
2024/02/07 09:13:37;;;;;;;3.70;0.60;;;;;;;;;;4939274;29;20044;-82
2024/02/07 09:16:03;;;;;;;2.15;0.60;;;;;;;;;;4926714;29;20035;-82
2024/02/07 09:18:29;;;;;;;4.82;0.65;;;;;;;;;;4934648;29;20060;-81
2024/02/07 09:20:55;;;;;;;2.42;0.60;;;;;;;;;;4946039;29;20036;-82
2024/02/07 09:23:20;;;;;;;5.53;0.80;;;;;;;;;;4928557;29;20091;-81
2024/02/07 09:25:46;;;;;;;3.58;0.70;;;;;;;;;;4935560;29;20092;-82
2024/02/07 09:28:12;;;;;;;2.88;0.60;;;;;;;;;;4933476;29;20046;-81
2024/02/07 09:30:38;;;;;;;1.10;0.43;;;;;;;;;;4944107;29;20067;-81
2024/02/07 09:33:03;;;;;;;3.30;0.82;;;;;;;;;;4938246;29;20035;-80
2024/02/07 09:35:30;;;;;;;4.97;0.70;;;;;;;;;;4939447;29;20480;-82
2024/02/07 09:37:56;;;;;;;1.33;0.50;;;;;;;;;;4939678;29;20459;-81
2024/02/07 09:40:23;;;;;;;2.85;0.70;;;;;;;;;;4952136;29;20078;-81
2024/02/07 09:42:49;;;;;;;2.88;0.82;;;;;;;;;;4945214;29;20033;-81
2024/02/07 09:45:18;;;;;;;7.45;0.77;;;;;;;;;;4951633;29;20032;-82
2024/02/07 09:47:47;;;;;;;2.70;0.70;;;;;;;;;;4953116;29;20039;-82
2024/02/07 09:50:16;;;;;;;5.40;2.28;;;;;;;;;;4935491;29;20031;-81
2024/02/07 09:52:45;;;;;;;4.38;1.00;;;;;;;;;;4936783;29;20047;-83
2024/02/07 09:55:14;;;;;;;4.25;1.10;;;;;;;;;;4937176;29;20040;-82
2024/02/07 09:57:42;;;;;;;5.85;0.95;;;;;;;;;;4935241;29;20028;-82
2024/02/07 10:00:08;;;;;;;2.28;0.90;;;;;;;;;;4933196;29;20035;-82
2024/02/07 10:02:38;;;;;;;7.55;1.10;;;;;;;;;;4933606;29;20169;-79
2024/02/07 10:05:07;;;;;;;3.97;1.30;;;;;;;;;;4931757;29;20043;-82
2024/02/07 10:07:43;;;;;;;2.22;0.80;;;;;;;;;;4931452;29;20047;-80
2024/02/07 10:10:12;;;;;;;5.13;0.73;;;;;;;;;;4929052;29;20040;-80
2024/02/07 10:12:38;;;;;;;2.28;0.82;;;;;;;;;;4928999;29;20047;-80
2024/02/07 10:15:07;;;;;;;3.47;1.10;;;;;;;;;;4926818;29;20043;-81
2024/02/07 10:17:33;;;;;;;7.85;1.15;;;;;;;;;;4928648;29;20068;-83
2024/02/07 10:19:59;;;;;;;9.63;1.20;;;;;;;;;;4939430;29;20504;-81
2024/02/07 10:22:25;;;;;;;5.80;1.08;;;;;;;;;;4924263;29;20100;-81
2024/02/07 10:24:57;;;;;;;4.25;0.70;;;;;;;;;;4907690;29;20036;-83
2024/02/07 10:27:23;;;;;;;2.53;0.80;;;;;;;;;;4927691;29;20068;-82
2024/02/07 10:29:49;;;;;;;3.65;0.75;;;;;;;;;;4928905;29;20047;-82
2024/02/07 10:32:16;;;;;;;3.03;0.90;;;;;;;;;;4962505;28;20046;-83
2024/02/07 10:34:50;;;;;;;2.20;0.70;;;;;;;;;;4965187;28;20039;-82
2024/02/07 10:37:17;;;;;;;3.42;0.95;;;;;;;;;;4964333;29;20150;-82
2024/02/07 10:39:43;;;;;;;2.92;0.80;;;;;;;;;;4932887;29;20035;-81
2024/02/07 10:42:09;;;;;;;4.25;1.13;;;;;;;;;;4950135;28;20023;-82
2024/02/07 10:44:35;;;;;;;3.85;1.13;;;;;;;;;;4949315;28;20042;-82
2024/02/07 10:47:02;;;;;;;6.55;1.38;;;;;;;;;;4964834;28;20043;-82
2024/02/07 10:49:31;;;;;;;5.35;1.10;;;;;;;;;;4939111;29;20028;-82
2024/02/07 10:51:56;;;;;;;5.85;1.20;;;;;;;;;;4927879;29;20047;-83
2024/02/07 10:54:22;;;;;;;4.05;1.45;;;;;;;;;;4913082;29;20036;-82
2024/02/07 10:56:50;;;;;;;5.00;1.30;;;;;;;;;;4928336;29;20032;-83
2024/02/07 10:59:20;;;;;;;3.58;1.20;;;;;;;;;;4929208;29;20040;-82
2024/02/07 11:01:46;;;;;;;13.13;2.85;;;;;;;;;;4907242;29;20099;-82
2024/02/07 11:04:12;;;;;;;4.88;1.23;;;;;;;;;;4938904;29;20112;-81
2024/02/07 11:06:38;;;;;;;3.08;0.90;;;;;;;;;;4925978;29;20052;-81
2024/02/07 11:09:06;;;;;;;3.45;1.00;;;;;;;;;;4925002;29;20032;-80
2024/02/07 11:11:35;;;;;;;3.33;1.10;;;;;;;;;;4922172;29;20083;-82
2024/02/07 11:14:01;;;;;;;3.40;1.23;;;;;;;;;;4939108;29;20036;-83
2024/02/07 11:16:27;;;;;;;5.93;0.82;;;;;;;;;;4941132;29;20040;-81
2024/02/07 11:18:53;;;;;;;7.78;1.25;;;;;;;;;;4942370;29;20016;-81
2024/02/07 11:21:26;;;;;;;3.70;0.98;;;;;;;;;;4938135;29;20039;-80
2024/02/07 11:23:53;;;;;;;6.90;1.23;;;;;;;;;;4940085;29;20032;-82
2024/02/07 11:26:19;;;;;;;2.88;0.88;;;;;;;;;;4939406;29;20024;-81
2024/02/07 11:28:46;;;;;;;3.30;1.02;;;;;;;;;;4940516;28;20060;-82
2024/02/07 11:31:14;;;;;;;5.75;1.02;;;;;;;;;;4958146;29;20021;-81
2024/02/07 11:33:47;;;;;;;4.22;0.88;;;;;;;;;;4938891;29;20064;-82
2024/02/07 11:36:19;;;;;;;5.22;1.38;;;;;;;;;;4918274;29;20040;-81
2024/02/07 11:38:53;;;;;;;7.35;1.08;;;;;;;;;;4948562;29;20047;-81
2024/02/07 11:41:21;;;;;;;3.72;1.40;;;;;;;;;;4935737;29;20031;-80
2024/02/07 11:43:50;;;;;;;6.70;0.90;;;;;;;;;;4919224;29;20066;-82
2024/02/07 11:46:16;;;;;;;6.00;1.30;;;;;;;;;;4935413;29;20039;-82
2024/02/07 11:48:42;;;;;;;4.15;0.88;;;;;;;;;;4917746;29;20117;-82
2024/02/07 11:51:12;;;;;;;5.47;1.00;;;;;;;;;;4935002;29;20035;-83
2024/02/07 11:53:39;;;;;;;2.80;1.20;;;;;;;;;;4932260;29;20046;-83
2024/02/07 11:56:12;;;;;;;2.40;1.42;;;;;;;;;;4903287;29;20035;-80
2024/02/07 11:58:38;;;;;;;2.83;1.00;;;;;;;;;;4915938;29;20032;-80
2024/02/07 12:01:09;;;;;;;2.80;1.45;;;;;;;;;;4921459;29;20090;-82
2024/02/07 12:03:35;;;;;;;3.58;1.65;;;;;;;;;;4912490;29;20032;-81
2024/02/07 12:06:01;;;;;;;6.90;2.20;;;;;;;;;;4926246;29;20106;-81
2024/02/07 12:08:27;;;;;;;7.05;2.70;;;;;;;;;;4921771;29;20039;-81
2024/02/07 12:10:53;;;;;;;6.07;2.30;;;;;;;;;;4926234;29;20040;-82
2024/02/07 12:13:19;;;;;;;3.65;2.00;;;;;;;;;;4925987;29;20040;-82
2024/02/07 12:15:45;;;;;;;3.63;1.67;;;;;;;;;;4915611;29;20028;-82
2024/02/07 12:18:11;;;;;;;5.88;2.30;;;;;;;;;;4935796;29;20034;-80
2024/02/07 12:20:37;;;;;;;4.93;1.88;;;;;;;;;;4925740;29;20051;-81
2024/02/07 12:23:03;;;;;;;5.20;1.80;;;;;;;;;;4925512;29;20035;-81
2024/02/07 12:25:29;;;;;;;4.10;1.52;;;;;;;;;;4941157;29;20127;-80
2024/02/07 12:27:54;;;;;;;3.58;1.88;;;;;;;;;;4915592;29;20036;-82
2024/02/07 12:30:20;;;;;;;4.30;2.20;;;;;;;;;;4940992;29;20062;-82
2024/02/07 12:32:46;;;;;;;4.47;1.70;;;;;;;;;;4911573;29;20051;-81
2024/02/07 12:35:12;;;;;;;5.28;1.85;;;;;;;;;;4941951;29;20031;-82
2024/02/07 12:37:40;;;;;;;3.97;2.13;;;;;;;;;;4925891;29;20558;-82
2024/02/07 12:40:13;;;;;;;4.18;2.00;;;;;;;;;;4928383;29;20044;-82
2024/02/07 12:42:39;;;;;;;5.60;2.00;;;;;;;;;;4926782;29;20032;-81
2024/02/07 12:45:07;;;;;;;4.10;1.83;;;;;;;;;;4928215;29;20038;-80
2024/02/07 12:47:33;;;;;;;2.53;1.70;;;;;;;;;;4926928;29;20074;-81
2024/02/07 12:50:02;;;;;;;4.75;2.10;;;;;;;;;;4935435;29;20036;-81
2024/02/07 12:52:28;;;;;;;3.63;1.80;;;;;;;;;;4920535;29;20035;-81
2024/02/07 12:54:54;;;;;;;5.90;2.53;;;;;;;;;;4923993;29;20419;-80
2024/02/07 12:57:24;;;;;;;5.38;2.15;;;;;;;;;;4923398;29;20068;-81
2024/02/07 12:59:50;;;;;;;5.18;1.77;;;;;;;;;;4909854;29;20072;-81
2024/02/07 13:02:16;;;;;;;4.90;1.90;;;;;;;;;;4929953;29;20028;-80
2024/02/07 13:04:42;;;;;;;4.20;2.30;;;;;;;;;;4927073;29;20498;-81
2024/02/07 13:07:11;;;;;;;3.58;2.03;;;;;;;;;;4945085;29;20036;-82
2024/02/07 13:09:37;;;;;;;11.13;2.25;;;;;;;;;;4914855;29;20040;-81
2024/02/07 13:12:04;;;;;;;4.30;1.70;;;;;;;;;;4930845;29;20039;-81
2024/02/07 13:14:30;;;;;;;9.40;2.53;;;;;;;;;;4933116;29;20094;-81
2024/02/07 13:16:56;;;;;;;5.13;1.95;;;;;;;;;;4935063;29;20043;-80
2024/02/07 13:19:22;;;;;;;8.15;2.50;;;;;;;;;;4915749;29;20039;-81
2024/02/07 13:21:48;;;;;;;5.22;2.20;;;;;;;;;;4913768;29;20028;-80
2024/02/07 13:24:15;;;;;;;6.72;2.63;;;;;;;;;;4930768;29;20050;-80
2024/02/07 13:26:41;;;;;;;5.25;2.22;;;;;;;;;;4948904;29;20047;-81
2024/02/07 13:29:08;;;;;;;8.70;2.58;;;;;;;;;;4915149;29;20036;-80
2024/02/07 13:31:38;;;;;;;7.80;2.20;;;;;;;;;;4931988;29;20039;-81
2024/02/07 13:34:07;;;;;;;4.30;2.08;;;;;;;;;;4928489;29;20047;-81
2024/02/07 13:36:33;;;;;;;4.25;2.25;;;;;;;;;;4923274;29;20507;-81
2024/02/07 13:38:59;;;;;;;3.60;1.83;;;;;;;;;;4923653;29;20035;-82
2024/02/07 13:41:25;;;;;;;5.82;2.00;;;;;;;;;;4924590;29;20489;-80
2024/02/07 13:43:52;;;;;;;4.05;2.00;;;;;;;;;;4924278;29;20082;-80
2024/02/07 13:46:18;;;;;;;4.22;2.08;;;;;;;;;;4922705;29;20040;-81
2024/02/07 13:48:43;;;;;;;3.95;2.13;;;;;;;;;;4924680;29;20055;-82
2024/02/07 13:51:09;;;;;;;5.35;2.20;;;;;;;;;;4930555;29;20036;-80
2024/02/07 13:53:39;;;;;;;6.40;2.28;;;;;;;;;;4921994;29;20032;-81
2024/02/07 13:56:05;;;;;;;12.02;2.15;;;;;;;;;;4904546;29;20070;-80
2024/02/07 13:58:31;;;;;;;4.90;2.20;;;;;;;;;;4910570;29;20036;-82
2024/02/07 14:00:57;;;;;;;5.57;2.58;;;;;;;;;;4910508;29;20115;-80
2024/02/07 14:03:23;;;;;;;5.55;2.53;;;;;;;;;;4927036;29;20056;-82
2024/02/07 14:05:49;;;;;;;4.60;2.03;;;;;;;;;;4910998;29;20063;-81
2024/02/07 14:08:18;;;;;;;9.57;2.70;;;;;;;;;;4933051;29;20028;-82
2024/02/07 14:10:44;;;;;;;5.13;2.80;;;;;;;;;;4918988;29;20534;-81
2024/02/07 14:13:13;;;;;;;6.00;2.92;;;;;;;;;;4937032;29;20046;-83
2024/02/07 14:15:39;;;;;;;6.43;2.65;;;;;;;;;;4920305;29;20495;-82
2024/02/07 14:18:05;;;;;;;5.25;2.85;;;;;;;;;;4947973;29;20067;-82
2024/02/07 14:20:32;;;;;;;6.13;3.28;;;;;;;;;;4936825;29;20052;-82
2024/02/07 14:22:58;;;;;;;6.82;2.55;;;;;;;;;;4916028;29;20032;-81
2024/02/07 14:25:24;;;;;;;6.47;2.83;;;;;;;;;;4947247;29;20053;-81
2024/02/07 14:27:50;;;;;;;5.45;2.50;;;;;;;;;;4921205;29;20038;-83
2024/02/07 14:30:16;;;;;;;6.50;2.65;;;;;;;;;;4937338;29;20051;-82
2024/02/07 14:32:42;;;;;;;6.05;2.88;;;;;;;;;;4946371;29;20036;-82
2024/02/07 14:35:08;;;;;;;6.30;3.22;;;;;;;;;;4949353;29;20093;-79
2024/02/07 14:37:34;;;;;;;5.05;2.15;;;;;;;;;;4927897;29;20035;-81
2024/02/07 14:40:02;;;;;;;6.55;2.97;;;;;;;;;;4914217;29;20023;-82
2024/02/07 14:42:31;;;;;;;6.13;2.22;;;;;;;;;;4946820;29;20055;-82
2024/02/07 14:44:57;;;;;;;7.53;2.38;;;;;;;;;;4914734;29;20069;-82
2024/02/07 14:47:22;;;;;;;7.63;2.40;;;;;;;;;;4917254;29;20039;-82
2024/02/07 14:49:48;;;;;;;9.98;2.50;;;;;;;;;;4932254;29;20103;-81
2024/02/07 14:52:14;;;;;;;6.72;2.05;;;;;;;;;;4918718;29;20407;-80
2024/02/07 14:54:40;;;;;;;6.85;1.90;;;;;;;;;;4933455;29;20091;-82
2024/02/07 14:57:06;;;;;;;5.60;1.92;;;;;;;;;;4915297;29;20035;-82
2024/02/07 14:59:32;;;;;;;5.78;1.95;;;;;;;;;;4916931;29;20065;-82
2024/02/07 15:01:58;;;;;;;7.72;1.70;;;;;;;;;;4917697;29;20028;-82
2024/02/07 15:04:23;;;;;;;6.30;1.50;;;;;;;;;;4931110;29;20039;-80
2024/02/07 15:06:54;;;;;;;5.05;1.35;;;;;;;;;;4929475;29;20467;-81
2024/02/07 15:09:20;;;;;;;7.57;0.82;;;;;;;;;;4933321;29;20086;-80
2024/02/07 15:11:46;;;;;;;4.63;1.13;;;;;;;;;;4932258;29;20035;-80
2024/02/07 15:14:11;;;;;;;4.88;0.80;;;;;;;;;;4938296;29;20071;-81
2024/02/07 15:16:37;;;;;;;3.15;0.60;;;;;;;;;;4940777;29;20040;-81
2024/02/07 15:19:03;;;;;;;2.45;0.63;;;;;;;;;;4956603;29;20395;-82
2024/02/07 15:21:29;;;;;;;2.13;0.32;;;;;;;;;;4923170;29;20059;-81
2024/02/07 15:23:54;;;;;;;2.85;0.55;;;;;;;;;;4935651;29;20039;-82
2024/02/07 15:26:21;;;;;;;3.08;1.08;;;;;;;;;;4950497;29;20499;-82
2024/02/07 15:28:50;;;;;;;4.28;1.52;;;;;;;;;;4934225;29;20036;-80
2024/02/07 15:31:15;;;;;;;2.80;0.70;;;;;;;;;;4930065;29;20035;-81
2024/02/07 15:33:42;;;;;;;2.20;0.98;;;;;;;;;;4945438;29;20035;-82
2024/02/07 15:36:07;;;;;;;4.18;0.90;;;;;;;;;;4964080;29;20039;-81
2024/02/07 15:38:34;;;;;;;4.97;1.25;;;;;;;;;;4948118;29;20050;-82
2024/02/07 15:41:00;;;;;;;5.28;1.30;;;;;;;;;;4948721;28;20031;-82
2024/02/07 15:43:28;;;;;;;4.50;1.80;;;;;;;;;;4966162;28;20081;-81
2024/02/07 15:45:54;;;;;;;4.07;2.25;;;;;;;;;;4948557;28;20108;-81
2024/02/07 15:48:20;;;;;;;6.25;2.20;;;;;;;;;;4930708;29;20499;-82
2024/02/07 15:50:46;;;;;;;4.22;2.30;;;;;;;;;;4911379;29;20043;-82
2024/02/07 15:53:12;;;;;;;5.43;2.85;;;;;;;;;;4926647;29;20035;-81
2024/02/07 15:55:37;;;;;;;11.52;4.25;;;;;;;;;;4910950;29;20051;-83